Time;durP1;ratioP1;P1;durP2;ratioP2;P2;SDS_P1;SDS_P2;PMS_P1;PMS_P2;Temp;Humidity;BMP_temperature;BMP_pressure;BME280_temperature;BME280_humidity;BME280_pressure;Samples;Min_cycle;Max_cycle;Signal;HPM_P1;HPM_P2
2022/07/09 00:02:24;;;;;;;8.00;1.90;;;;;;;13.14;100.00;100284.98;104868;1271;74649;-69
2022/07/09 00:05:13;;;;;;;8.00;2.20;;;;;;;13.14;100.00;100282.67;104948;1271;61533;-69
2022/07/09 00:08:04;;;;;;;8.20;1.70;;;;;;;13.13;100.00;100283.11;104792;1271;59804;-70
2022/07/09 00:10:53;;;;;;;8.00;2.00;;;;;;;13.13;100.00;100282.23;105062;1271;73392;-70
2022/07/09 00:13:41;;;;;;;7.00;1.80;;;;;;;13.12;100.00;100273.73;105118;1271;68680;-71
2022/07/09 00:16:29;;;;;;;10.60;1.80;;;;;;;13.12;100.00;100268.75;104750;1272;72797;-71
2022/07/09 00:19:18;;;;;;;7.50;1.90;;;;;;;13.11;100.00;100264.16;104754;1273;60417;-70
2022/07/09 00:22:09;;;;;;;6.60;1.80;;;;;;;13.10;100.00;100259.77;105138;1271;59558;-69
2022/07/09 00:24:59;;;;;;;7.70;2.00;;;;;;;13.10;100.00;100257.85;104965;1271;71676;-71
2022/07/09 00:27:47;;;;;;;8.70;1.80;;;;;;;13.10;100.00;100253.98;105040;1271;68272;-69
2022/07/09 00:30:36;;;;;;;9.70;2.10;;;;;;;13.10;100.00;100250.91;104838;1273;74424;-69
2022/07/09 00:33:24;;;;;;;6.30;1.60;;;;;;;13.10;100.00;100248.60;104917;1271;60137;-69
2022/07/09 00:36:12;;;;;;;10.60;2.00;;;;;;;13.11;100.00;100250.09;105242;1271;61854;-69
2022/07/09 00:39:00;;;;;;;8.90;1.80;;;;;;;13.14;100.00;100247.77;105209;1271;74273;-68
2022/07/09 00:41:49;;;;;;;9.10;2.10;;;;;;;13.15;100.00;100250.46;104991;1271;68843;-68
2022/07/09 00:44:37;;;;;;;7.40;1.70;;;;;;;13.17;100.00;100247.84;105103;1271;72980;-68
2022/07/09 00:47:26;;;;;;;7.20;1.70;;;;;;;13.19;100.00;100249.65;104966;1271;60643;-68
2022/07/09 00:50:14;;;;;;;6.10;1.80;;;;;;;13.20;100.00;100250.80;105087;1271;59702;-68
2022/07/09 00:53:02;;;;;;;7.30;1.60;;;;;;;13.21;100.00;100246.26;104861;1271;74947;-70
2022/07/09 00:55:51;;;;;;;6.80;1.80;;;;;;;13.23;100.00;100246.29;104949;1271;66943;-67
2022/07/09 00:58:44;;;;;;;6.90;1.50;;;;;;;13.25;100.00;100246.98;104888;1271;74367;-67
2022/07/09 01:01:32;;;;;;;7.10;2.10;;;;;;;13.27;100.00;100245.73;104838;1271;59752;-67
2022/07/09 01:04:21;;;;;;;8.90;1.80;;;;;;;13.31;100.00;100244.35;105037;1271;61054;-69
2022/07/09 01:07:09;;;;;;;7.60;1.80;;;;;;;13.33;100.00;100245.27;104981;1272;74706;-68
2022/07/09 01:09:57;;;;;;;6.40;1.70;;;;;;;13.35;100.00;100242.58;104883;1271;69460;-69
2022/07/09 01:12:45;;;;;;;8.50;2.00;;;;;;;13.37;100.00;100238.83;104874;1274;75143;-68
2022/07/09 01:15:34;;;;;;;7.20;1.80;;;;;;;13.40;100.00;100235.39;104768;1273;59743;-69
2022/07/09 01:18:22;;;;;;;7.10;1.90;;;;;;;13.43;100.00;100234.52;105064;1273;61304;-68
2022/07/09 01:21:15;;;;;;;6.00;1.60;;;;;;;13.47;100.00;100231.02;104895;1273;74829;-67
2022/07/09 01:24:04;;;;;;;6.00;1.60;;;;;;;13.52;100.00;100229.74;104814;1274;67932;-65
2022/07/09 01:26:54;;;;;;;7.30;1.50;;;;;;;13.55;100.00;100222.81;104949;1274;71865;-68
2022/07/09 01:29:49;;;;;;;8.90;1.80;;;;;;;13.60;100.00;100216.34;105150;1274;59692;-65
2022/07/09 01:32:37;;;;;;;8.10;1.90;;;;;;;13.63;100.00;100209.48;104822;1273;60372;-65
2022/07/09 01:35:27;;;;;;;7.20;1.80;;;;;;;13.66;100.00;100200.34;104780;1274;72389;-72
2022/07/09 01:38:16;;;;;;;7.40;1.80;;;;;;;13.68;100.00;100195.85;105012;1273;68381;-72
2022/07/09 01:41:04;;;;;;;6.10;1.50;;;;;;;13.71;100.00;100191.90;104825;1273;72445;-74
2022/07/09 01:43:52;;;;;;;7.30;1.50;;;;;;;13.73;100.00;100190.98;105020;1274;60343;-72
2022/07/09 01:46:40;;;;;;;7.80;1.70;;;;;;;13.74;100.00;100188.36;105190;1274;61643;-72
2022/07/09 01:49:28;;;;;;;6.00;1.80;;;;;;;13.74;100.00;100184.05;104972;1274;73088;-73
2022/07/09 01:52:16;;;;;;;6.20;1.70;;;;;;;13.74;100.00;100181.61;105151;1273;69413;-74
2022/07/09 01:55:05;;;;;;;6.40;1.70;;;;;;;13.75;100.00;100180.45;105016;1274;74860;-71
2022/07/09 01:57:54;;;;;;;7.00;1.50;;;;;;;13.75;100.00;100178.34;104855;1274;61285;-71
2022/07/09 02:00:42;;;;;;;7.00;1.30;;;;;;;13.74;100.00;100171.11;105252;1274;61572;-72
2022/07/09 02:03:30;;;;;;;6.30;1.50;;;;;;;13.73;100.00;100167.38;105163;1274;74015;-72
2022/07/09 02:06:18;;;;;;;6.40;1.80;;;;;;;13.73;100.00;100165.60;105051;1273;67533;-72
2022/07/09 02:09:06;;;;;;;7.00;1.40;;;;;;;13.73;100.00;100169.91;105051;1274;72459;-72
2022/07/09 02:11:54;;;;;;;7.00;1.70;;;;;;;13.72;100.00;100163.41;104969;1271;59684;-72
2022/07/09 02:14:43;;;;;;;7.60;1.60;;;;;;;13.72;100.00;100165.91;105153;1271;60927;-74
2022/07/09 02:17:32;;;;;;;6.20;1.60;;;;;;;13.71;100.00;100161.49;104913;1271;72783;-73
2022/07/09 02:20:20;;;;;;;7.80;1.60;;;;;;;13.71;99.83;100160.83;105238;1271;66649;-66
2022/07/09 02:23:09;;;;;;;9.30;1.70;;;;;;;13.70;99.92;100157.02;104801;1271;72787;-69
2022/07/09 02:25:57;;;;;;;8.30;1.70;;;;;;;13.69;99.80;100152.11;104765;1271;59768;-72
2022/07/09 02:28:47;;;;;;;6.70;1.60;;;;;;;13.68;99.66;100151.99;105151;1271;59721;-73
2022/07/09 02:31:35;;;;;;;7.50;1.70;;;;;;;13.67;99.56;100150.15;105205;1271;74796;-73
2022/07/09 02:34:24;;;;;;;7.30;1.40;;;;;;;13.66;99.52;100145.98;104993;1271;68288;-71
2022/07/09 02:37:14;;;;;;;8.10;1.70;;;;;;;13.65;99.56;100149.06;105137;1271;73981;-72
2022/07/09 02:40:04;;;;;;;7.00;1.60;;;;;;;13.63;99.73;100147.63;105251;1271;59723;-71
2022/07/09 02:42:54;;;;;;;5.30;1.30;;;;;;;13.62;99.74;100141.69;104966;1271;59658;-71
2022/07/09 02:45:42;;;;;;;7.60;1.90;;;;;;;13.62;99.51;100134.73;104914;1271;75056;-70
2022/07/09 02:48:31;;;;;;;8.00;1.60;;;;;;;13.62;99.65;100136.50;104889;1271;66774;-67
2022/07/09 02:51:19;;;;;;;8.00;2.00;;;;;;;13.62;99.62;100137.55;104905;1271;74405;-70
2022/07/09 02:54:08;;;;;;;8.10;1.80;;;;;;;13.65;99.51;100133.55;105155;1271;59572;-71
2022/07/09 02:56:56;;;;;;;7.40;1.60;;;;;;;13.68;99.32;100139.19;104937;1271;62084;-70
2022/07/09 02:59:45;;;;;;;6.00;1.80;;;;;;;13.72;99.10;100135.60;105007;1271;73170;-71
2022/07/09 03:02:33;;;;;;;6.20;1.70;;;;;;;13.77;98.82;100135.83;104908;1271;68487;-70
2022/07/09 03:05:21;;;;;;;9.10;1.70;;;;;;;13.83;98.88;100132.63;105103;1271;72831;-70
2022/07/09 03:08:09;;;;;;;7.30;2.50;;;;;;;13.91;98.48;100132.10;104873;1273;59766;-69
2022/07/09 03:10:58;;;;;;;7.60;1.60;;;;;;;14.02;98.04;100129.31;105025;1271;59739;-70
2022/07/09 03:13:46;;;;;;;7.40;1.70;;;;;;;14.14;97.56;100129.33;104878;1271;73187;-69
2022/07/09 03:16:34;;;;;;;7.20;1.60;;;;;;;14.27;96.91;100127.21;104906;1271;69726;-71
2022/07/09 03:19:22;;;;;;;5.80;1.40;;;;;;;14.41;96.24;100130.25;105022;1271;74777;-69
2022/07/09 03:22:11;;;;;;;9.80;1.60;;;;;;;14.50;95.45;100126.56;105096;1271;59882;-68
2022/07/09 03:25:00;;;;;;;6.40;1.50;;;;;;;14.58;94.71;100124.18;105044;1271;60291;-68
2022/07/09 03:27:48;;;;;;;7.00;1.60;;;;;;;14.67;93.80;100127.52;105154;1271;73174;-69
2022/07/09 03:30:36;;;;;;;9.10;1.50;;;;;;;14.72;93.13;100122.41;105255;1271;68746;-68
2022/07/09 03:33:24;;;;;;;6.50;1.40;;;;;;;14.75;92.49;100124.23;105113;1271;73500;-68
2022/07/09 03:36:12;;;;;;;7.90;1.60;;;;;;;14.78;92.13;100121.63;105095;1271;59609;-67
2022/07/09 03:39:00;;;;;;;7.10;1.50;;;;;;;14.80;91.27;100123.41;104903;1271;60937;-70
2022/07/09 03:41:48;;;;;;;7.20;1.70;;;;;;;14.83;90.95;100122.78;105059;1271;73910;-69
2022/07/09 03:44:36;;;;;;;7.20;1.50;;;;;;;14.88;90.87;100121.81;105183;1271;68580;-69
2022/07/09 03:47:24;;;;;;;8.40;1.60;;;;;;;14.94;90.77;100123.48;104978;1271;73384;-69
2022/07/09 03:50:13;;;;;;;6.60;1.30;;;;;;;14.99;90.43;100126.77;105092;1272;59701;-69
2022/07/09 03:53:01;;;;;;;6.50;1.50;;;;;;;15.03;89.44;100122.71;105025;1271;62242;-68
2022/07/09 03:55:49;;;;;;;6.80;1.40;;;;;;;15.07;89.41;100117.50;104805;1271;73806;-67
2022/07/09 03:58:37;;;;;;;8.40;1.60;;;;;;;15.08;88.96;100112.91;104987;1271;68412;-68
2022/07/09 04:01:25;;;;;;;12.40;1.70;;;;;;;15.10;88.66;100106.68;105162;1271;73448;-68
2022/07/09 04:04:14;;;;;;;9.40;1.70;;;;;;;15.12;88.84;100105.69;104923;1271;59698;-67
2022/07/09 04:07:02;;;;;;;7.10;1.40;;;;;;;15.19;88.40;100107.70;104782;1271;61042;-68
2022/07/09 04:09:50;;;;;;;8.10;1.60;;;;;;;15.25;88.20;100106.81;104844;1271;73152;-70
2022/07/09 04:12:38;;;;;;;6.30;1.50;;;;;;;15.30;87.48;100101.52;104853;1271;69556;-71
2022/07/09 04:15:26;;;;;;;8.40;1.50;;;;;;;15.34;86.85;100099.15;105113;1271;73234;-70
2022/07/09 04:18:17;;;;;;;7.80;1.50;;;;;;;15.38;86.62;100102.55;104838;1271;59558;-69
2022/07/09 04:21:06;;;;;;;11.90;2.30;;;;;;;15.45;86.14;100103.50;104838;1271;60489;-70
2022/07/09 04:23:54;;;;;;;8.10;1.70;;;;;;;15.54;85.94;100101.17;104977;1271;73825;-68
2022/07/09 04:26:43;;;;;;;8.40;1.60;;;;;;;15.65;85.34;100100.03;105009;1271;67156;-69
2022/07/09 04:29:31;;;;;;;6.70;1.30;;;;;;;15.76;84.80;100094.52;104736;1271;74523;-71
2022/07/09 04:32:19;;;;;;;7.10;1.50;;;;;;;15.87;83.70;100094.38;105608;1271;59792;-68
2022/07/09 04:35:08;;;;;;;6.70;1.60;;;;;;;15.94;83.27;100093.52;105119;1271;61010;-69
2022/07/09 04:37:55;;;;;;;6.80;1.60;;;;;;;16.08;83.27;100090.64;104854;1271;73041;-67
2022/07/09 04:40:44;;;;;;;6.00;1.30;;;;;;;16.27;82.60;100089.63;105077;1271;69117;-67
2022/07/09 04:43:32;;;;;;;6.30;1.40;;;;;;;16.40;80.95;100086.58;104841;1271;73364;-67
2022/07/09 04:46:21;;;;;;;8.00;1.90;;;;;;;16.53;80.70;100087.39;104864;1271;59640;-67
2022/07/09 04:49:12;;;;;;;8.30;1.70;;;;;;;16.76;80.00;100092.21;105226;1271;59299;-65
2022/07/09 04:52:00;;;;;;;8.20;1.40;;;;;;;16.92;79.42;100094.70;104801;1271;73798;-67
2022/07/09 04:54:48;;;;;;;8.10;1.70;;;;;;;17.20;78.46;100090.15;104951;1271;69822;-68
2022/07/09 04:57:37;;;;;;;7.60;1.30;;;;;;;17.65;76.34;100088.61;104782;1271;73277;-69
2022/07/09 05:00:25;;;;;;;9.10;1.60;;;;;;;17.92;74.81;100092.20;104839;1271;59697;-68
2022/07/09 05:03:13;;;;;;;6.90;1.30;;;;;;;18.34;73.97;100093.41;104822;1271;61022;-65
2022/07/09 05:06:01;;;;;;;7.40;1.50;;;;;;;18.32;72.20;100087.35;104962;1271;74101;-69
2022/07/09 05:08:49;;;;;;;8.80;1.40;;;;;;;18.06;72.76;100094.18;104996;1271;68922;-69
2022/07/09 05:11:38;;;;;;;9.40;1.40;;;;;;;17.79;73.76;100084.65;104950;1271;71876;-69
2022/07/09 05:14:26;;;;;;;8.40;1.70;;;;;;;17.55;74.42;100095.06;104843;1271;59716;-68
2022/07/09 05:17:14;;;;;;;7.40;1.70;;;;;;;17.33;74.64;100094.52;104924;1271;61758;-66
2022/07/09 05:20:07;;;;;;;7.00;1.60;;;;;;;17.21;75.48;100095.79;104808;1271;74670;-69
2022/07/09 05:22:55;;;;;;;6.20;1.40;;;;;;;17.21;75.46;100093.29;105022;1271;380223;-67
2022/07/09 05:25:43;;;;;;;8.90;1.80;;;;;;;17.32;74.64;100088.35;104800;1271;72341;-70
2022/07/09 05:28:31;;;;;;;8.40;2.00;;;;;;;17.42;74.44;100088.91;104909;1271;59769;-70
2022/07/09 05:31:22;;;;;;;8.50;2.20;;;;;;;17.55;74.25;100087.18;104883;1271;60343;-68
2022/07/09 05:34:21;;;;;;;8.30;1.80;;;;;;;17.67;73.54;100084.62;104904;1271;74512;-73
2022/07/09 05:37:10;;;;;;;9.60;2.10;;;;;;;17.81;72.65;100082.38;104912;1271;68292;-75
2022/07/09 05:40:05;;;;;;;8.80;1.60;;;;;;;17.96;72.65;100083.88;105024;1271;72660;-73
2022/07/09 05:42:53;;;;;;;7.70;1.60;;;;;;;18.06;71.56;100081.19;104908;1271;59742;-73
2022/07/09 05:45:41;;;;;;;10.10;1.90;;;;;;;18.07;71.41;100079.00;104878;1271;59623;-74
2022/07/09 05:48:29;;;;;;;9.90;1.90;;;;;;;18.34;69.46;100076.58;105115;1271;74774;-75
2022/07/09 05:51:19;;;;;;;8.50;1.80;;;;;;;18.67;68.23;100073.10;105097;1271;66530;-76
2022/07/09 05:54:06;;;;;;;10.80;2.20;;;;;;;18.55;68.03;100065.64;105207;1271;74326;-74
2022/07/09 05:56:54;;;;;;;9.40;2.00;;;;;;;18.39;68.31;100065.59;104853;1271;59771;-75
2022/07/09 05:59:42;;;;;;;11.20;2.50;;;;;;;18.55;67.19;100068.49;105219;1271;61249;-73
2022/07/09 06:02:30;;;;;;;9.00;2.10;;;;;;;19.34;62.93;100058.74;105179;1271;72281;-72
2022/07/09 06:05:19;;;;;;;9.80;2.20;;;;;;;20.14;60.53;100054.67;105239;1271;68967;-73
2022/07/09 06:08:09;;;;;;;10.20;2.40;;;;;;;21.26;54.62;100050.61;105123;1271;73304;-74
2022/07/09 06:10:59;;;;;;;8.20;1.70;;;;;;;21.98;51.20;100045.45;105051;1271;59694;-73
2022/07/09 06:13:47;;;;;;;9.50;2.00;;;;;;;22.33;50.48;100041.17;105301;1271;60127;-77
2022/07/09 06:16:35;;;;;;;11.30;2.00;;;;;;;22.50;50.20;100039.60;105042;1271;72385;-75
2022/07/09 06:19:24;;;;;;;11.10;2.30;;;;;;;22.50;50.24;100037.05;104912;1271;67242;-74
2022/07/09 06:22:12;;;;;;;10.70;1.90;;;;;;;22.08;49.98;100042.79;105077;1271;73427;-72
2022/07/09 06:25:00;;;;;;;16.50;2.50;;;;;;;21.51;50.88;100039.22;104809;1271;59758;-73
2022/07/09 06:27:48;;;;;;;11.60;2.30;;;;;;;21.05;52.36;100046.20;104712;1271;61800;-72
2022/07/09 06:30:36;;;;;;;9.50;2.10;;;;;;;20.92;52.95;100045.95;105281;1271;71886;-73
2022/07/09 06:33:24;;;;;;;8.40;1.70;;;;;;;20.87;53.12;100048.66;105130;1271;66838;-75
2022/07/09 06:36:12;;;;;;;7.40;1.60;;;;;;;21.39;52.53;100036.34;105101;1271;71534;-76
2022/07/09 06:42:07;;;;;;;9.30;1.80;;;;;;;24.23;45.53;100032.05;105286;1274;59565;-74
2022/07/09 06:44:56;;;;;;;9.20;2.00;;;;;;;24.03;45.57;100022.98;104749;1274;73078;-74
2022/07/09 06:47:45;;;;;;;11.30;2.00;;;;;;;24.03;44.83;100022.61;104971;1274;68007;-76
2022/07/09 06:50:34;;;;;;;8.60;2.00;;;;;;;23.87;44.30;100024.91;105038;1274;72473;-76
2022/07/09 06:53:22;;;;;;;12.40;2.20;;;;;;;23.76;43.89;100023.14;105182;1274;59742;-75
2022/07/09 06:56:10;;;;;;;12.00;2.00;;;;;;;24.06;44.09;100025.97;105317;1274;60615;-74
2022/07/09 06:58:58;;;;;;;8.90;1.70;;;;;;;24.86;42.29;100019.05;105020;1274;71899;-74
2022/07/09 07:01:46;;;;;;;8.70;1.60;;;;;;;25.31;41.32;100009.73;105097;1274;66943;-73
2022/07/09 07:04:34;;;;;;;11.90;1.90;;;;;;;25.03;41.52;100019.42;105002;1274;73203;-73
2022/07/09 07:07:23;;;;;;;9.30;1.80;;;;;;;24.26;43.10;100023.27;105279;1274;59683;-72
2022/07/09 07:10:12;;;;;;;7.60;1.80;;;;;;;23.81;43.94;100020.98;105322;1274;59693;-74
2022/07/09 07:13:00;;;;;;;11.20;2.50;;;;;;;23.72;43.97;100024.09;105629;1271;74296;-75
2022/07/09 07:15:49;;;;;;;9.40;1.70;;;;;;;23.53;44.29;100027.85;104870;1271;67116;-74
2022/07/09 07:18:37;;;;;;;9.60;1.90;;;;;;;22.64;45.72;100028.13;104848;1271;73425;-76
2022/07/09 07:21:26;;;;;;;8.10;1.90;;;;;;;21.94;47.78;100031.84;105045;1271;59646;-75
2022/07/09 07:24:14;;;;;;;9.40;2.10;;;;;;;21.98;48.20;100026.86;105143;1271;60411;-73
2022/07/09 07:27:02;;;;;;;9.80;1.80;;;;;;;22.10;48.33;100024.47;105049;1271;74215;-74
2022/07/09 07:29:50;;;;;;;10.10;2.10;;;;;;;21.81;48.40;100023.84;104963;1271;68348;-74
2022/07/09 07:32:39;;;;;;;8.50;1.80;;;;;;;21.65;49.03;100027.39;104909;1271;72587;-73
2022/07/09 07:35:27;;;;;;;9.20;2.10;;;;;;;21.42;49.27;100026.20;104868;1271;59554;-76
2022/07/09 07:38:15;;;;;;;8.10;1.90;;;;;;;21.26;50.26;100020.09;105146;1271;60291;-73
2022/07/09 07:41:03;;;;;;;9.50;2.00;;;;;;;20.91;51.53;100026.55;105118;1271;73263;-74
2022/07/09 07:43:51;;;;;;;8.70;2.20;;;;;;;20.71;52.34;100019.95;105112;1271;66785;-75
2022/07/09 07:46:39;;;;;;;8.90;2.20;;;;;;;20.77;52.25;100020.40;105200;1271;72927;-75
2022/07/09 07:49:27;;;;;;;9.60;2.00;;;;;;;20.85;51.97;100021.19;105080;1271;59627;-74
2022/07/09 07:52:15;;;;;;;13.20;2.20;;;;;;;21.37;50.62;100014.23;105052;1271;59646;-74
2022/07/09 07:55:03;;;;;;;10.10;2.00;;;;;;;22.90;47.52;100007.86;105118;1271;73247;-75
2022/07/09 07:57:52;;;;;;;11.40;2.30;;;;;;;23.49;45.85;100010.05;104981;1272;67122;-74
2022/07/09 08:00:41;;;;;;;8.10;1.80;;;;;;;23.60;44.47;100002.52;105172;1271;73700;-75
2022/07/09 08:03:28;;;;;;;7.90;1.80;;;;;;;23.24;44.02;100006.90;105103;1271;59650;-75
2022/07/09 08:06:22;;;;;;;10.70;1.70;;;;;;;23.95;41.51;100005.81;105439;1271;59636;-76
2022/07/09 08:09:10;;;;;;;10.70;1.90;;;;;;;25.40;38.86;99997.23;104966;1271;74504;-76
2022/07/09 08:11:59;;;;;;;12.90;2.00;;;;;;;25.30;38.74;99995.73;105084;1271;67787;-75
2022/07/09 08:14:47;;;;;;;8.70;1.50;;;;;;;24.80;38.53;100002.92;104935;1271;72792;-75
2022/07/09 08:17:35;;;;;;;7.00;1.50;;;;;;;24.35;39.55;99996.54;105036;1271;59726;-78
2022/07/09 08:20:23;;;;;;;8.10;1.60;;;;;;;24.84;39.01;100008.48;105266;1271;60646;-75
2022/07/09 08:23:11;;;;;;;7.20;1.50;;;;;;;25.87;36.91;99997.22;105025;1274;74716;-74
2022/07/09 08:25:59;;;;;;;9.20;1.80;;;;;;;25.18;37.65;100005.38;105080;1273;66694;-75
2022/07/09 08:28:48;;;;;;;6.30;1.50;;;;;;;24.90;38.70;100009.56;105060;1274;72936;-75
2022/07/09 08:31:36;;;;;;;8.10;1.50;;;;;;;24.50;38.48;100001.52;104905;1274;59842;-73
2022/07/09 08:34:26;;;;;;;11.60;1.90;;;;;;;23.98;39.41;100004.30;104959;1274;60339;-75
2022/07/09 08:37:15;;;;;;;11.10;1.60;;;;;;;24.01;39.58;100004.00;105071;1274;72045;-75
2022/07/09 08:40:03;;;;;;;7.20;1.50;;;;;;;24.19;40.00;100000.17;105091;1272;68063;-78
2022/07/09 08:42:53;;;;;;;9.20;1.60;;;;;;;23.88;40.37;99994.37;105089;1274;72975;-77
2022/07/09 08:45:45;;;;;;;7.10;1.80;;;;;;;23.86;41.17;100004.23;105293;1273;59687;-75
2022/07/09 08:48:36;;;;;;;11.20;1.70;;;;;;;23.72;40.59;100002.94;105243;1274;60494;-77
2022/07/09 08:51:26;;;;;;;8.20;1.60;;;;;;;23.35;41.11;100006.55;105058;1273;73204;-77
2022/07/09 08:54:16;;;;;;;6.60;1.20;;;;;;;22.96;40.95;100011.11;105111;1274;66499;-76
2022/07/09 08:57:05;;;;;;;6.10;1.20;;;;;;;22.76;41.07;100017.43;105123;1273;73279;-76
2022/07/09 08:59:53;;;;;;;9.30;1.80;;;;;;;22.96;40.59;100008.67;105251;1273;59730;-76
2022/07/09 09:02:41;;;;;;;6.00;1.20;;;;;;;23.10;40.20;100005.63;105009;1274;60553;-75
2022/07/09 09:05:30;;;;;;;6.60;1.40;;;;;;;23.32;40.07;100007.51;104960;1274;72924;-75
2022/07/09 09:08:22;;;;;;;6.10;1.30;;;;;;;23.40;39.62;100005.69;105188;1274;67813;-76
2022/07/09 09:11:25;;;;;;;6.70;1.30;;;;;;;23.48;40.05;100005.00;104909;1274;72663;-75
2022/07/09 09:14:21;;;;;;;7.70;1.30;;;;;;;23.61;40.06;100000.01;105091;1273;59548;-74
2022/07/09 09:17:11;;;;;;;6.60;1.30;;;;;;;23.20;40.83;100011.05;104996;1273;60248;-73
2022/07/09 09:20:16;;;;;;;5.50;1.30;;;;;;;22.48;42.50;100016.52;104981;1274;71998;-74
2022/07/09 09:23:10;;;;;;;6.00;1.10;;;;;;;21.85;44.54;100019.83;104933;1274;67909;-75
2022/07/09 09:26:13;;;;;;;6.60;1.50;;;;;;;21.28;46.29;100024.04;104919;1273;73176;-75
2022/07/09 09:29:04;;;;;;;9.10;1.80;;;;;;;20.72;48.21;100022.20;104944;1273;59728;-76
2022/07/09 09:31:53;;;;;;;7.60;1.50;;;;;;;20.36;49.70;100023.30;104944;1273;60156;-73
2022/07/09 09:34:49;;;;;;;5.60;1.20;;;;;;;20.37;50.56;100022.55;104989;1273;74735;-74
2022/07/09 09:37:38;;;;;;;9.10;1.60;;;;;;;21.08;49.88;100017.13;105200;1273;68774;-75
2022/07/09 09:40:26;;;;;;;7.30;1.20;;;;;;;22.04;47.76;100010.43;104892;1273;74239;-74
2022/07/09 09:43:21;;;;;;;7.20;1.50;;;;;;;22.50;46.41;100007.42;104740;1273;59689;-75
2022/07/09 09:46:10;;;;;;;6.60;1.40;;;;;;;22.50;46.51;100008.91;104918;1273;60506;-77
2022/07/09 09:48:58;;;;;;;5.90;1.20;;;;;;;22.45;46.67;100004.81;104886;1273;74713;-76
2022/07/09 09:51:56;;;;;;;5.90;1.30;;;;;;;22.31;46.82;100001.21;104917;1274;68024;-75
2022/07/09 09:54:47;;;;;;;6.50;1.30;;;;;;;22.29;47.15;100000.27;105158;1276;72808;-74
2022/07/09 09:57:37;;;;;;;6.90;1.70;;;;;;;22.68;46.81;99999.17;105013;1273;59792;-75
2022/07/09 10:00:25;;;;;;;8.30;1.40;;;;;;;24.15;43.53;99989.51;104915;1275;60245;-74
2022/07/09 10:03:15;;;;;;;6.70;1.10;;;;;;;25.21;41.44;99981.65;104937;1273;74536;-75
2022/07/09 10:06:04;;;;;;;7.30;1.70;;;;;;;25.93;39.32;99976.88;104899;1273;68553;-75
2022/07/09 10:08:54;;;;;;;8.20;1.50;;;;;;;25.61;39.88;99978.41;104873;1273;71973;-74
2022/07/09 10:11:46;;;;;;;6.00;1.20;;;;;;;26.13;39.62;99973.04;105114;1273;59774;-75
2022/07/09 10:14:38;;;;;;;7.80;1.70;;;;;;;26.26;38.93;99975.85;105307;1273;59764;-76
2022/07/09 10:17:27;;;;;;;7.20;1.20;;;;;;;26.04;39.22;99975.20;105123;1273;73248;-76
2022/07/09 10:20:16;;;;;;;5.90;1.20;;;;;;;26.17;39.00;99966.61;104906;1273;66720;-73
2022/07/09 10:23:04;;;;;;;6.70;1.10;;;;;;;26.14;37.95;99966.44;105007;1271;74258;-74
2022/07/09 10:25:55;;;;;;;5.60;1.10;;;;;;;25.80;38.90;99967.21;105102;1271;59675;-75
2022/07/09 10:28:43;;;;;;;5.20;1.00;;;;;;;25.31;39.42;99971.85;105257;1271;60275;-75
2022/07/09 10:31:32;;;;;;;5.90;1.10;;;;;;;24.80;39.89;99982.21;104879;1274;74966;-75
2022/07/09 10:34:38;;;;;;;6.90;1.10;;;;;;;24.09;41.91;99974.09;104927;1271;68584;-75
2022/07/09 10:37:43;;;;;;;5.70;1.20;;;;;;;23.49;44.09;99969.48;105273;1271;72831;-72
2022/07/09 10:40:57;;;;;;;6.30;1.40;;;;;;;23.38;45.12;99971.93;105229;1271;59647;-74
2022/07/09 10:43:52;;;;;;;6.40;1.20;;;;;;;23.92;44.33;99973.11;105345;1271;59771;-75
2022/07/09 10:46:43;;;;;;;5.20;1.20;;;;;;;23.96;43.51;99969.89;105353;1271;72137;-73
2022/07/09 10:49:35;;;;;;;6.30;1.10;;;;;;;24.28;43.32;99967.46;105278;1272;68937;-75
2022/07/09 10:52:30;;;;;;;6.10;1.20;;;;;;;24.42;42.05;99961.54;105185;1271;73834;-73
2022/07/09 10:55:21;;;;;;;7.30;1.00;;;;;;;23.78;42.82;99974.59;105034;1271;59767;-73
2022/07/09 10:58:20;;;;;;;6.20;1.20;;;;;;;22.90;45.47;99976.96;105247;1271;59933;-72
2022/07/09 11:01:08;;;;;;;5.60;1.00;;;;;;;22.07;49.44;99987.50;105151;1271;73086;-74
2022/07/09 11:03:58;;;;;;;4.90;1.10;;;;;;;21.44;52.66;99990.50;105137;1271;68381;-73
2022/07/09 11:06:48;;;;;;;6.30;1.20;;;;;;;20.92;54.59;99996.02;105110;1271;73208;-74
2022/07/09 11:09:36;;;;;;;5.20;1.30;;;;;;;20.51;56.23;99996.60;104916;1271;59634;-75
2022/07/09 11:12:24;;;;;;;5.60;1.30;;;;;;;20.26;57.78;99997.73;105042;1271;60477;-73
2022/07/09 11:15:18;;;;;;;6.30;1.50;;;;;;;20.20;58.62;99998.81;105158;1271;74809;-74
2022/07/09 11:18:13;;;;;;;6.80;1.40;;;;;;;20.33;59.07;99998.92;105086;1271;67567;-73
2022/07/09 11:21:01;;;;;;;7.30;1.20;;;;;;;20.26;57.49;99995.98;105354;1271;73447;-75
2022/07/09 11:23:50;;;;;;;6.80;1.50;;;;;;;20.22;57.81;99997.71;105278;1271;59637;-76
2022/07/09 11:26:38;;;;;;;5.30;1.20;;;;;;;20.27;58.16;99990.96;104969;1271;59640;-74
2022/07/09 11:29:26;;;;;;;6.10;1.30;;;;;;;20.42;57.90;99983.04;105054;1271;74735;-74
2022/07/09 11:32:17;;;;;;;5.50;1.30;;;;;;;20.77;57.06;99988.74;105098;1271;69607;-75
2022/07/09 11:35:05;;;;;;;5.60;1.20;;;;;;;21.04;55.86;99981.05;104965;1271;74444;-75
2022/07/09 11:37:56;;;;;;;7.40;1.40;;;;;;;21.32;53.21;99979.33;105408;1271;59783;-73
2022/07/09 11:40:44;;;;;;;5.90;1.20;;;;;;;21.54;52.30;99968.32;105093;1271;59698;-75
2022/07/09 11:43:32;;;;;;;5.30;1.20;;;;;;;22.11;51.20;99970.52;104917;1271;72989;-74
2022/07/09 11:46:21;;;;;;;6.70;1.30;;;;;;;22.30;48.14;99965.55;105064;1271;66652;-75
2022/07/09 11:49:16;;;;;;;8.50;1.30;;;;;;;22.44;47.92;99961.44;105175;1271;73054;-74
2022/07/09 11:52:18;;;;;;;6.70;1.40;;;;;;;22.57;47.30;99955.63;105165;1271;59672;-75
2022/07/09 11:55:09;;;;;;;6.10;1.20;;;;;;;22.64;47.37;99945.52;105340;1271;59661;-74
2022/07/09 11:58:02;;;;;;;5.80;1.30;;;;;;;22.47;47.99;99946.20;105354;1271;73880;-76
2022/07/09 12:00:50;;;;;;;6.40;1.50;;;;;;;22.30;47.89;99947.65;105181;1271;69570;-75
2022/07/09 12:03:50;;;;;;;5.30;1.30;;;;;;;22.26;47.34;99949.78;104999;1271;71524;-73
2022/07/09 12:06:50;;;;;;;6.10;1.30;;;;;;;22.28;48.09;99948.50;105406;1271;59602;-73
2022/07/09 12:09:39;;;;;;;6.70;1.20;;;;;;;22.29;48.44;99944.51;105097;1271;60240;-74
2022/07/09 12:12:27;;;;;;;5.60;1.10;;;;;;;22.29;47.44;99942.88;105315;1271;73877;-76
2022/07/09 12:15:17;;;;;;;5.60;1.20;;;;;;;22.21;46.75;99939.79;105187;1271;66522;-74
2022/07/09 12:18:04;;;;;;;5.50;1.20;;;;;;;22.13;45.18;99931.52;104960;1272;71613;-75
2022/07/09 12:20:52;;;;;;;5.00;1.00;;;;;;;21.98;45.68;99932.41;105143;1271;59662;-73
2022/07/09 12:23:40;;;;;;;5.40;1.20;;;;;;;21.77;44.45;99917.23;104951;1271;59932;-74
2022/07/09 12:26:30;;;;;;;5.50;1.30;;;;;;;21.68;44.65;99919.48;105546;1271;73322;-73
2022/07/09 12:29:18;;;;;;;5.20;1.10;;;;;;;21.62;43.37;99910.51;105133;1271;68170;-74
2022/07/09 12:32:06;;;;;;;5.70;1.50;;;;;;;21.56;43.60;99906.94;105138;1271;71577;-73
2022/07/09 12:34:55;;;;;;;4.60;1.00;;;;;;;21.65;42.63;99916.95;105071;1271;59550;-74
2022/07/09 12:37:43;;;;;;;6.00;1.20;;;;;;;21.54;41.04;99918.68;105330;1271;60509;-74
2022/07/09 12:40:31;;;;;;;5.50;1.10;;;;;;;21.46;41.66;99912.09;104947;1271;74262;-74
2022/07/09 12:43:22;;;;;;;5.20;1.20;;;;;;;21.53;42.15;99915.63;105117;1271;66540;-75
2022/07/09 12:46:10;;;;;;;4.90;1.20;;;;;;;21.62;41.79;99913.75;105151;1271;74236;-74
2022/07/09 12:48:58;;;;;;;5.40;1.30;;;;;;;21.66;40.83;99902.39;105122;1269;59788;-73
2022/07/09 12:51:45;;;;;;;5.20;1.10;;;;;;;21.70;40.78;99900.45;105572;1271;59815;-73
2022/07/09 12:54:33;;;;;;;8.30;1.60;;;;;;;21.58;40.94;99901.93;104915;1271;73845;-74
2022/07/09 12:57:23;;;;;;;5.00;1.40;;;;;;;21.45;41.53;99904.38;104954;1272;67562;-74
2022/07/09 13:00:13;;;;;;;4.90;1.10;;;;;;;21.46;42.12;99905.26;105346;1271;72920;-73
2022/07/09 13:03:01;;;;;;;4.80;1.10;;;;;;;21.53;41.79;99894.81;105234;1271;59777;-72